Colfax, NC (27235)

4:26 AM EDT on June 26, 2017 (GMT -0400)
Colfax | | Change Station

Elev 971 ft 36.12 °N, 80.02 °W | Updated 19 seconds ago

Clear
Clear
58.5 °F
Feels Like 58.5 °F
N
0.0
Wind Variable Wind from SW
Gusts 0.0 mph

Today
High -- | Low -- °F
--% Chance of Precip.
Yesterday
High -- | Low -- °F
Precip. -- in
Pressure 30.10 in
Visibility 10.0 miles
Clouds Clear
Dew Point 57 °F
Humidity 95%
Rainfall 0.00 in
Snow Depth Not available.
6:04 AM 8:41 PM
Waxing Crescent, 7% visible
METAR KGSO 260754Z 00000KT 10SM CLR 17/13 A3013 RMK AO2 SLP193 T01670128
Pressure 30.10 in
Visibility 10.0 miles
Clouds Clear
Dew Point 57 °F
Humidity 95%
Rainfall 0.00 in
Snow Depth Not available.
6:04 AM 8:41 PM
Waxing Crescent, 7% visible
METAR KGSO 260754Z 00000KT 10SM CLR 17/13 A3013 RMK AO2 SLP193 T01670128

Get Severe Weather Alerts

Thanks for signing up!

Be on the lookout for a verification email in your inbox.

You'll start receiving the daily forecast at 6 AM.

×

10-Day Weather Forecast

Almanac

Astronomy

Jun. 26, 2017 Rise Set
Actual Time
Civil Twilight
Nautical Twilight
Astronomical Twilight
Moon
Length of Visible Light
Length of Day
Tomorrow will be .
, % of the Moon is Illuminated

Today's Extremes

State Highs State Lows

Community

WunderPhotos

Category 6

Welcome to Category 6. This is the collective home for Weather Underground's featured writeups by Dr. Jeff Masters (right), Bob Henson (left), Chris Burt, and other regular contributors.

Nearby

Air Quality

  Air Quality AQ Index Pollutant
Not available.

Snow Depth

Station Depth Elevation

Earthquake Activity

City Distance Mag. Time & Date
Minimum magnitude displayed is 2.5.

Coastal Water Temperatures

Place Temperature

Stations

Nearby Weather Stations

Station Location Temp. Windchill Dew Point Humidity Wind Precip. Elev Updated Type
                   

Watches & Warnings

There are currently no watches in effect.